sensor_id;sensor_type;location;lat;lon;timestamp;P1;durP1;ratioP1;P2;durP2;ratioP2
6280;SDS011;3173;48.204;11.612;2022-09-16T00:00:40;7.40;;;4.43;;
6280;SDS011;3173;48.204;11.612;2022-09-16T00:03:07;9.77;;;4.63;;
6280;SDS011;3173;48.204;11.612;2022-09-16T00:05:33;7.83;;;4.87;;
6280;SDS011;3173;48.204;11.612;2022-09-16T00:08:01;6.77;;;4.33;;
6280;SDS011;3173;48.204;11.612;2022-09-16T00:10:28;8.07;;;4.43;;
6280;SDS011;3173;48.204;11.612;2022-09-16T00:12:55;11.93;;;4.57;;
6280;SDS011;3173;48.204;11.612;2022-09-16T00:15:20;6.87;;;4.53;;
6280;SDS011;3173;48.204;11.612;2022-09-16T00:17:46;11.70;;;4.90;;
6280;SDS011;3173;48.204;11.612;2022-09-16T00:20:13;5.13;;;3.83;;
6280;SDS011;3173;48.204;11.612;2022-09-16T00:22:39;13.10;;;4.93;;
6280;SDS011;3173;48.204;11.612;2022-09-16T00:25:05;6.63;;;4.00;;
6280;SDS011;3173;48.204;11.612;2022-09-16T00:27:31;6.90;;;4.90;;
6280;SDS011;3173;48.204;11.612;2022-09-16T00:29:57;11.20;;;4.30;;
6280;SDS011;3173;48.204;11.612;2022-09-16T00:32:23;6.93;;;4.20;;
6280;SDS011;3173;48.204;11.612;2022-09-16T00:34:49;5.93;;;4.20;;
6280;SDS011;3173;48.204;11.612;2022-09-16T00:37:15;5.17;;;3.80;;
6280;SDS011;3173;48.204;11.612;2022-09-16T00:39:41;7.03;;;4.43;;
6280;SDS011;3173;48.204;11.612;2022-09-16T00:42:10;6.50;;;4.30;;
6280;SDS011;3173;48.204;11.612;2022-09-16T00:44:59;9.63;;;4.00;;
6280;SDS011;3173;48.204;11.612;2022-09-16T00:47:34;6.63;;;4.10;;
6280;SDS011;3173;48.204;11.612;2022-09-16T00:50:03;8.20;;;4.03;;
6280;SDS011;3173;48.204;11.612;2022-09-16T00:52:29;9.20;;;4.77;;
6280;SDS011;3173;48.204;11.612;2022-09-16T00:54:56;7.60;;;5.03;;
6280;SDS011;3173;48.204;11.612;2022-09-16T00:57:22;11.90;;;5.10;;
6280;SDS011;3173;48.204;11.612;2022-09-16T00:59:49;6.53;;;4.70;;
6280;SDS011;3173;48.204;11.612;2022-09-16T01:02:23;6.53;;;4.70;;
6280;SDS011;3173;48.204;11.612;2022-09-16T01:04:57;6.53;;;4.50;;
6280;SDS011;3173;48.204;11.612;2022-09-16T01:07:35;5.33;;;4.40;;
6280;SDS011;3173;48.204;11.612;2022-09-16T01:10:04;7.43;;;4.03;;
6280;SDS011;3173;48.204;11.612;2022-09-16T01:12:30;7.23;;;4.90;;
6280;SDS011;3173;48.204;11.612;2022-09-16T01:14:57;7.60;;;5.00;;
6280;SDS011;3173;48.204;11.612;2022-09-16T01:17:36;5.80;;;4.40;;
6280;SDS011;3173;48.204;11.612;2022-09-16T01:46:18;5.60;;;4.10;;
6280;SDS011;3173;48.204;11.612;2022-09-16T01:48:50;7.97;;;5.00;;
6280;SDS011;3173;48.204;11.612;2022-09-16T01:53:45;5.63;;;3.73;;
6280;SDS011;3173;48.204;11.612;2022-09-16T01:56:16;5.60;;;4.13;;
6280;SDS011;3173;48.204;11.612;2022-09-16T02:04:16;6.13;;;4.57;;
6280;SDS011;3173;48.204;11.612;2022-09-16T02:06:44;8.07;;;3.73;;
6280;SDS011;3173;48.204;11.612;2022-09-16T02:09:12;6.03;;;4.20;;
6280;SDS011;3173;48.204;11.612;2022-09-16T02:11:39;8.70;;;4.37;;
6280;SDS011;3173;48.204;11.612;2022-09-16T02:14:08;7.10;;;4.43;;
6280;SDS011;3173;48.204;11.612;2022-09-16T02:19:07;6.00;;;4.03;;
6280;SDS011;3173;48.204;11.612;2022-09-16T02:21:35;5.37;;;3.73;;
6280;SDS011;3173;48.204;11.612;2022-09-16T02:24:02;5.33;;;3.90;;
6280;SDS011;3173;48.204;11.612;2022-09-16T02:26:30;6.80;;;3.73;;
6280;SDS011;3173;48.204;11.612;2022-09-16T02:28:58;6.63;;;3.90;;
6280;SDS011;3173;48.204;11.612;2022-09-16T02:31:27;5.57;;;3.97;;
6280;SDS011;3173;48.204;11.612;2022-09-16T02:33:59;7.87;;;4.20;;
6280;SDS011;3173;48.204;11.612;2022-09-16T02:36:26;8.80;;;3.93;;
6280;SDS011;3173;48.204;11.612;2022-09-16T02:38:55;5.60;;;3.80;;
6280;SDS011;3173;48.204;11.612;2022-09-16T02:41:22;7.90;;;3.70;;
6280;SDS011;3173;48.204;11.612;2022-09-16T02:43:48;10.60;;;4.17;;
6280;SDS011;3173;48.204;11.612;2022-09-16T02:48:55;9.10;;;4.90;;
6280;SDS011;3173;48.204;11.612;2022-09-16T02:54:11;8.60;;;4.67;;
6280;SDS011;3173;48.204;11.612;2022-09-16T02:56:41;7.17;;;4.67;;
6280;SDS011;3173;48.204;11.612;2022-09-16T02:59:09;4.30;;;3.80;;
6280;SDS011;3173;48.204;11.612;2022-09-16T03:01:37;6.10;;;4.00;;
6280;SDS011;3173;48.204;11.612;2022-09-16T03:04:05;7.10;;;3.90;;
6280;SDS011;3173;48.204;11.612;2022-09-16T03:06:31;8.47;;;5.20;;
6280;SDS011;3173;48.204;11.612;2022-09-16T03:09:00;7.90;;;4.30;;
6280;SDS011;3173;48.204;11.612;2022-09-16T03:11:30;7.10;;;4.40;;
6280;SDS011;3173;48.204;11.612;2022-09-16T03:18:59;8.10;;;5.23;;
6280;SDS011;3173;48.204;11.612;2022-09-16T03:21:39;8.07;;;4.40;;
6280;SDS011;3173;48.204;11.612;2022-09-16T03:24:10;7.77;;;4.60;;
6280;SDS011;3173;48.204;11.612;2022-09-16T03:26:52;10.90;;;4.33;;
6280;SDS011;3173;48.204;11.612;2022-09-16T03:29:24;8.10;;;4.73;;
6280;SDS011;3173;48.204;11.612;2022-09-16T03:36:52;6.70;;;4.00;;
6280;SDS011;3173;48.204;11.612;2022-09-16T03:39:19;7.27;;;4.50;;
6280;SDS011;3173;48.204;11.612;2022-09-16T03:41:46;6.67;;;4.33;;
6280;SDS011;3173;48.204;11.612;2022-09-16T03:44:12;6.80;;;5.00;;
6280;SDS011;3173;48.204;11.612;2022-09-16T03:46:38;6.67;;;4.60;;
6280;SDS011;3173;48.204;11.612;2022-09-16T03:49:04;12.33;;;5.60;;
6280;SDS011;3173;48.204;11.612;2022-09-16T03:51:30;7.93;;;4.47;;
6280;SDS011;3173;48.204;11.612;2022-09-16T03:53:56;7.83;;;5.00;;
6280;SDS011;3173;48.204;11.612;2022-09-16T03:56:22;7.27;;;5.13;;
6280;SDS011;3173;48.204;11.612;2022-09-16T03:58:49;7.97;;;5.77;;
6280;SDS011;3173;48.204;11.612;2022-09-16T04:01:15;6.63;;;5.00;;
6280;SDS011;3173;48.204;11.612;2022-09-16T04:03:41;8.27;;;4.87;;
6280;SDS011;3173;48.204;11.612;2022-09-16T04:06:07;11.60;;;5.27;;
6280;SDS011;3173;48.204;11.612;2022-09-16T04:08:33;7.20;;;4.50;;
6280;SDS011;3173;48.204;11.612;2022-09-16T04:11:00;12.50;;;4.90;;
6280;SDS011;3173;48.204;11.612;2022-09-16T04:13:30;8.57;;;5.13;;
6280;SDS011;3173;48.204;11.612;2022-09-16T04:15:57;8.20;;;5.03;;
6280;SDS011;3173;48.204;11.612;2022-09-16T04:18:23;10.30;;;6.03;;
6280;SDS011;3173;48.204;11.612;2022-09-16T04:20:49;8.63;;;5.40;;
6280;SDS011;3173;48.204;11.612;2022-09-16T04:23:15;13.00;;;6.43;;
6280;SDS011;3173;48.204;11.612;2022-09-16T04:25:41;7.13;;;4.53;;
6280;SDS011;3173;48.204;11.612;2022-09-16T04:28:07;7.50;;;5.67;;
6280;SDS011;3173;48.204;11.612;2022-09-16T04:30:32;7.77;;;5.63;;
6280;SDS011;3173;48.204;11.612;2022-09-16T04:32:58;7.10;;;5.07;;
6280;SDS011;3173;48.204;11.612;2022-09-16T04:35:24;8.43;;;5.97;;
6280;SDS011;3173;48.204;11.612;2022-09-16T04:37:50;14.13;;;6.97;;
6280;SDS011;3173;48.204;11.612;2022-09-16T04:40:17;9.20;;;6.00;;
6280;SDS011;3173;48.204;11.612;2022-09-16T04:42:49;11.33;;;5.77;;
6280;SDS011;3173;48.204;11.612;2022-09-16T04:45:16;10.43;;;6.37;;
6280;SDS011;3173;48.204;11.612;2022-09-16T04:47:43;8.63;;;5.60;;
6280;SDS011;3173;48.204;11.612;2022-09-16T04:50:09;11.87;;;7.43;;
6280;SDS011;3173;48.204;11.612;2022-09-16T04:52:35;7.53;;;5.80;;
6280;SDS011;3173;48.204;11.612;2022-09-16T04:55:01;10.20;;;7.33;;
6280;SDS011;3173;48.204;11.612;2022-09-16T04:57:31;11.97;;;6.47;;
6280;SDS011;3173;48.204;11.612;2022-09-16T04:59:57;8.73;;;6.30;;
6280;SDS011;3173;48.204;11.612;2022-09-16T05:02:23;7.70;;;6.50;;
6280;SDS011;3173;48.204;11.612;2022-09-16T05:04:49;11.20;;;7.23;;
6280;SDS011;3173;48.204;11.612;2022-09-16T05:07:15;12.83;;;6.60;;
6280;SDS011;3173;48.204;11.612;2022-09-16T05:09:41;9.27;;;5.60;;
6280;SDS011;3173;48.204;11.612;2022-09-16T05:12:07;10.73;;;6.37;;
6280;SDS011;3173;48.204;11.612;2022-09-16T05:14:33;8.87;;;5.70;;
6280;SDS011;3173;48.204;11.612;2022-09-16T05:16:59;13.40;;;6.83;;
6280;SDS011;3173;48.204;11.612;2022-09-16T05:19:25;9.53;;;7.10;;
6280;SDS011;3173;48.204;11.612;2022-09-16T05:21:51;11.57;;;6.87;;
6280;SDS011;3173;48.204;11.612;2022-09-16T05:24:17;12.23;;;7.13;;
6280;SDS011;3173;48.204;11.612;2022-09-16T05:26:43;14.13;;;6.70;;
6280;SDS011;3173;48.204;11.612;2022-09-16T05:29:12;12.23;;;7.60;;
6280;SDS011;3173;48.204;11.612;2022-09-16T05:31:40;10.50;;;7.00;;
6280;SDS011;3173;48.204;11.612;2022-09-16T05:36:33;9.93;;;6.83;;
6280;SDS011;3173;48.204;11.612;2022-09-16T05:38:59;12.43;;;7.77;;
6280;SDS011;3173;48.204;11.612;2022-09-16T05:41:25;10.53;;;7.77;;
6280;SDS011;3173;48.204;11.612;2022-09-16T05:43:51;9.30;;;7.23;;
6280;SDS011;3173;48.204;11.612;2022-09-16T05:46:21;13.70;;;7.83;;
6280;SDS011;3173;48.204;11.612;2022-09-16T05:48:48;19.60;;;8.13;;
6280;SDS011;3173;48.204;11.612;2022-09-16T05:51:15;11.57;;;7.77;;
6280;SDS011;3173;48.204;11.612;2022-09-16T05:53:41;14.37;;;7.40;;
6280;SDS011;3173;48.204;11.612;2022-09-16T05:56:12;10.73;;;7.40;;
6280;SDS011;3173;48.204;11.612;2022-09-16T05:58:38;10.80;;;7.30;;
6280;SDS011;3173;48.204;11.612;2022-09-16T06:01:05;17.43;;;7.80;;
6280;SDS011;3173;48.204;11.612;2022-09-16T06:03:32;12.20;;;7.70;;
6280;SDS011;3173;48.204;11.612;2022-09-16T06:08:43;16.10;;;7.03;;
6280;SDS011;3173;48.204;11.612;2022-09-16T06:11:10;11.40;;;7.90;;
6280;SDS011;3173;48.204;11.612;2022-09-16T06:13:36;12.90;;;7.80;;
6280;SDS011;3173;48.204;11.612;2022-09-16T06:16:03;12.73;;;8.43;;
6280;SDS011;3173;48.204;11.612;2022-09-16T06:18:29;10.60;;;7.63;;
6280;SDS011;3173;48.204;11.612;2022-09-16T06:20:56;9.93;;;7.03;;
6280;SDS011;3173;48.204;11.612;2022-09-16T06:23:22;12.07;;;8.00;;
6280;SDS011;3173;48.204;11.612;2022-09-16T06:25:48;8.93;;;7.13;;
6280;SDS011;3173;48.204;11.612;2022-09-16T06:28:23;20.87;;;8.60;;
6280;SDS011;3173;48.204;11.612;2022-09-16T06:30:49;20.10;;;8.37;;
6280;SDS011;3173;48.204;11.612;2022-09-16T06:33:14;11.20;;;7.63;;
6280;SDS011;3173;48.204;11.612;2022-09-16T06:35:40;10.50;;;7.53;;
6280;SDS011;3173;48.204;11.612;2022-09-16T06:38:06;12.43;;;7.87;;
6280;SDS011;3173;48.204;11.612;2022-09-16T06:40:32;10.60;;;7.27;;
6280;SDS011;3173;48.204;11.612;2022-09-16T06:42:58;16.40;;;7.60;;
6280;SDS011;3173;48.204;11.612;2022-09-16T06:45:24;15.27;;;8.50;;
6280;SDS011;3173;48.204;11.612;2022-09-16T06:47:53;16.07;;;8.37;;
6280;SDS011;3173;48.204;11.612;2022-09-16T06:50:23;11.97;;;6.97;;
6280;SDS011;3173;48.204;11.612;2022-09-16T06:52:49;14.10;;;8.03;;
6280;SDS011;3173;48.204;11.612;2022-09-16T06:55:15;13.90;;;8.30;;
6280;SDS011;3173;48.204;11.612;2022-09-16T06:57:41;12.07;;;8.10;;
6280;SDS011;3173;48.204;11.612;2022-09-16T07:00:07;12.20;;;8.47;;
6280;SDS011;3173;48.204;11.612;2022-09-16T07:02:34;16.20;;;8.40;;
6280;SDS011;3173;48.204;11.612;2022-09-16T07:05:00;14.27;;;7.57;;
6280;SDS011;3173;48.204;11.612;2022-09-16T07:07:28;11.90;;;8.30;;
6280;SDS011;3173;48.204;11.612;2022-09-16T07:09:55;11.03;;;7.70;;
6280;SDS011;3173;48.204;11.612;2022-09-16T07:12:21;16.23;;;8.47;;
6280;SDS011;3173;48.204;11.612;2022-09-16T07:14:47;10.93;;;8.17;;
6280;SDS011;3173;48.204;11.612;2022-09-16T07:17:13;13.23;;;7.67;;
6280;SDS011;3173;48.204;11.612;2022-09-16T07:19:39;13.63;;;8.53;;
6280;SDS011;3173;48.204;11.612;2022-09-16T07:22:06;14.10;;;9.13;;
6280;SDS011;3173;48.204;11.612;2022-09-16T07:24:32;12.20;;;8.67;;
6280;SDS011;3173;48.204;11.612;2022-09-16T07:26:58;12.13;;;7.63;;
6280;SDS011;3173;48.204;11.612;2022-09-16T07:29:25;10.90;;;7.67;;
6280;SDS011;3173;48.204;11.612;2022-09-16T07:31:51;14.80;;;8.23;;
6280;SDS011;3173;48.204;11.612;2022-09-16T07:34:17;12.10;;;9.00;;
6280;SDS011;3173;48.204;11.612;2022-09-16T07:36:45;11.57;;;7.97;;
6280;SDS011;3173;48.204;11.612;2022-09-16T07:39:12;12.03;;;6.80;;
6280;SDS011;3173;48.204;11.612;2022-09-16T07:41:39;12.47;;;8.13;;
6280;SDS011;3173;48.204;11.612;2022-09-16T07:44:06;18.83;;;8.93;;
6280;SDS011;3173;48.204;11.612;2022-09-16T07:46:34;10.07;;;7.30;;
6280;SDS011;3173;48.204;11.612;2022-09-16T07:49:01;12.33;;;8.10;;
6280;SDS011;3173;48.204;11.612;2022-09-16T07:51:27;13.03;;;8.17;;
6280;SDS011;3173;48.204;11.612;2022-09-16T07:53:55;17.90;;;9.13;;
6280;SDS011;3173;48.204;11.612;2022-09-16T07:56:23;12.07;;;7.97;;
6280;SDS011;3173;48.204;11.612;2022-09-16T07:58:50;17.47;;;8.60;;
6280;SDS011;3173;48.204;11.612;2022-09-16T08:01:16;16.13;;;7.97;;
6280;SDS011;3173;48.204;11.612;2022-09-16T08:03:43;13.23;;;8.30;;
6280;SDS011;3173;48.204;11.612;2022-09-16T08:06:10;14.87;;;9.00;;
6280;SDS011;3173;48.204;11.612;2022-09-16T08:08:36;10.73;;;7.50;;
6280;SDS011;3173;48.204;11.612;2022-09-16T08:11:02;10.93;;;7.80;;
6280;SDS011;3173;48.204;11.612;2022-09-16T08:13:29;19.73;;;8.00;;
6280;SDS011;3173;48.204;11.612;2022-09-16T08:15:58;12.57;;;7.90;;
6280;SDS011;3173;48.204;11.612;2022-09-16T08:18:24;20.50;;;9.53;;
6280;SDS011;3173;48.204;11.612;2022-09-16T08:20:50;12.53;;;8.93;;
6280;SDS011;3173;48.204;11.612;2022-09-16T08:23:16;13.00;;;8.20;;
6280;SDS011;3173;48.204;11.612;2022-09-16T08:25:43;17.03;;;9.10;;
6280;SDS011;3173;48.204;11.612;2022-09-16T08:28:12;11.60;;;7.33;;
6280;SDS011;3173;48.204;11.612;2022-09-16T08:30:39;12.77;;;8.00;;
6280;SDS011;3173;48.204;11.612;2022-09-16T08:33:05;12.23;;;8.10;;
6280;SDS011;3173;48.204;11.612;2022-09-16T08:35:31;15.07;;;7.30;;
6280;SDS011;3173;48.204;11.612;2022-09-16T08:37:57;15.83;;;7.60;;
6280;SDS011;3173;48.204;11.612;2022-09-16T08:40:23;15.23;;;8.03;;
6280;SDS011;3173;48.204;11.612;2022-09-16T08:43:04;11.93;;;8.53;;
6280;SDS011;3173;48.204;11.612;2022-09-16T08:48:22;11.20;;;8.30;;
6280;SDS011;3173;48.204;11.612;2022-09-16T08:50:52;15.40;;;7.53;;
6280;SDS011;3173;48.204;11.612;2022-09-16T08:55:45;13.50;;;7.90;;
6280;SDS011;3173;48.204;11.612;2022-09-16T08:58:16;13.57;;;7.67;;
6280;SDS011;3173;48.204;11.612;2022-09-16T09:00:44;12.43;;;8.20;;
6280;SDS011;3173;48.204;11.612;2022-09-16T09:03:14;11.57;;;7.57;;
6280;SDS011;3173;48.204;11.612;2022-09-16T09:05:52;10.93;;;7.23;;
6280;SDS011;3173;48.204;11.612;2022-09-16T09:08:24;13.20;;;7.57;;
6280;SDS011;3173;48.204;11.612;2022-09-16T09:11:16;14.13;;;7.70;;
6280;SDS011;3173;48.204;11.612;2022-09-16T09:26:49;11.97;;;8.20;;
6280;SDS011;3173;48.204;11.612;2022-09-16T09:34:24;15.43;;;8.40;;
6280;SDS011;3173;48.204;11.612;2022-09-16T09:36:59;15.20;;;9.50;;
6280;SDS011;3173;48.204;11.612;2022-09-16T09:39:30;14.27;;;9.63;;
6280;SDS011;3173;48.204;11.612;2022-09-16T09:42:17;13.40;;;8.93;;
6280;SDS011;3173;48.204;11.612;2022-09-16T09:47:16;17.27;;;10.80;;
6280;SDS011;3173;48.204;11.612;2022-09-16T09:49:50;14.43;;;9.43;;
6280;SDS011;3173;48.204;11.612;2022-09-16T09:52:21;14.07;;;10.27;;
6280;SDS011;3173;48.204;11.612;2022-09-16T09:54:48;20.90;;;11.57;;
6280;SDS011;3173;48.204;11.612;2022-09-16T09:57:36;21.73;;;10.60;;
6280;SDS011;3173;48.204;11.612;2022-09-16T10:02:32;16.43;;;10.47;;
6280;SDS011;3173;48.204;11.612;2022-09-16T10:04:59;17.50;;;10.63;;
6280;SDS011;3173;48.204;11.612;2022-09-16T10:07:26;15.20;;;11.67;;
6280;SDS011;3173;48.204;11.612;2022-09-16T10:09:56;17.97;;;11.87;;
6280;SDS011;3173;48.204;11.612;2022-09-16T10:12:31;19.00;;;12.60;;
6280;SDS011;3173;48.204;11.612;2022-09-16T10:14:57;18.33;;;12.57;;
6280;SDS011;3173;48.204;11.612;2022-09-16T10:17:24;13.40;;;11.50;;
6280;SDS011;3173;48.204;11.612;2022-09-16T10:22:29;15.87;;;11.53;;
6280;SDS011;3173;48.204;11.612;2022-09-16T10:27:26;22.63;;;13.27;;
6280;SDS011;3173;48.204;11.612;2022-09-16T10:32:53;20.13;;;13.43;;
6280;SDS011;3173;48.204;11.612;2022-09-16T10:35:29;20.83;;;12.60;;
6280;SDS011;3173;48.204;11.612;2022-09-16T10:40:22;7.47;;;5.50;;
6280;SDS011;3173;48.204;11.612;2022-09-16T10:42:51;11.87;;;5.53;;
6280;SDS011;3173;48.204;11.612;2022-09-16T10:47:51;7.13;;;4.93;;
6280;SDS011;3173;48.204;11.612;2022-09-16T10:50:18;18.67;;;4.77;;
6280;SDS011;3173;48.204;11.612;2022-09-16T10:52:45;9.00;;;4.80;;
6280;SDS011;3173;48.204;11.612;2022-09-16T10:57:44;8.63;;;5.27;;
6280;SDS011;3173;48.204;11.612;2022-09-16T11:00:17;10.10;;;5.30;;
6280;SDS011;3173;48.204;11.612;2022-09-16T11:05:30;10.30;;;5.93;;
6280;SDS011;3173;48.204;11.612;2022-09-16T11:10:38;11.70;;;6.17;;
6280;SDS011;3173;48.204;11.612;2022-09-16T11:26:14;11.20;;;6.63;;
6280;SDS011;3173;48.204;11.612;2022-09-16T11:34:25;7.93;;;4.80;;
6280;SDS011;3173;48.204;11.612;2022-09-16T11:37:13;12.53;;;5.10;;
6280;SDS011;3173;48.204;11.612;2022-09-16T11:39:45;14.03;;;4.63;;
6280;SDS011;3173;48.204;11.612;2022-09-16T11:45:03;7.10;;;4.70;;
6280;SDS011;3173;48.204;11.612;2022-09-16T11:47:40;11.30;;;3.93;;
6280;SDS011;3173;48.204;11.612;2022-09-16T11:57:43;7.63;;;4.80;;
6280;SDS011;3173;48.204;11.612;2022-09-16T12:00:11;10.90;;;5.07;;
6280;SDS011;3173;48.204;11.612;2022-09-16T12:05:24;6.10;;;4.37;;
6280;SDS011;3173;48.204;11.612;2022-09-16T12:07:59;9.23;;;4.63;;
6280;SDS011;3173;48.204;11.612;2022-09-16T12:13:21;6.37;;;3.87;;
6280;SDS011;3173;48.204;11.612;2022-09-16T12:15:47;6.93;;;3.87;;
6280;SDS011;3173;48.204;11.612;2022-09-16T12:18:16;6.43;;;4.20;;
6280;SDS011;3173;48.204;11.612;2022-09-16T12:20:48;6.53;;;4.30;;
6280;SDS011;3173;48.204;11.612;2022-09-16T12:23:16;9.40;;;4.23;;
6280;SDS011;3173;48.204;11.612;2022-09-16T12:33:43;7.27;;;4.43;;
6280;SDS011;3173;48.204;11.612;2022-09-16T12:36:11;8.00;;;6.03;;
6280;SDS011;3173;48.204;11.612;2022-09-16T12:38:38;8.00;;;5.70;;
6280;SDS011;3173;48.204;11.612;2022-09-16T12:43:47;8.77;;;5.43;;
6280;SDS011;3173;48.204;11.612;2022-09-16T12:46:26;11.47;;;6.30;;
6280;SDS011;3173;48.204;11.612;2022-09-16T12:51:41;10.10;;;4.00;;
6280;SDS011;3173;48.204;11.612;2022-09-16T12:56:46;4.17;;;2.70;;
6280;SDS011;3173;48.204;11.612;2022-09-16T13:01:46;11.43;;;3.50;;
6280;SDS011;3173;48.204;11.612;2022-09-16T13:04:17;4.67;;;3.20;;
6280;SDS011;3173;48.204;11.612;2022-09-16T13:06:50;3.70;;;2.60;;
6280;SDS011;3173;48.204;11.612;2022-09-16T13:09:28;4.57;;;2.87;;
6280;SDS011;3173;48.204;11.612;2022-09-16T13:14:45;4.80;;;3.30;;
6280;SDS011;3173;48.204;11.612;2022-09-16T13:17:12;4.70;;;3.37;;
6280;SDS011;3173;48.204;11.612;2022-09-16T13:19:46;4.50;;;3.30;;
6280;SDS011;3173;48.204;11.612;2022-09-16T13:24:53;6.53;;;3.20;;
6280;SDS011;3173;48.204;11.612;2022-09-16T13:27:22;4.03;;;3.20;;
6280;SDS011;3173;48.204;11.612;2022-09-16T13:29:49;4.70;;;3.63;;
6280;SDS011;3173;48.204;11.612;2022-09-16T13:32:25;5.10;;;3.20;;
6280;SDS011;3173;48.204;11.612;2022-09-16T13:35:00;3.93;;;2.70;;
6280;SDS011;3173;48.204;11.612;2022-09-16T13:37:26;5.03;;;3.13;;
6280;SDS011;3173;48.204;11.612;2022-09-16T13:39:52;5.57;;;2.60;;
6280;SDS011;3173;48.204;11.612;2022-09-16T13:42:19;4.00;;;3.00;;
6280;SDS011;3173;48.204;11.612;2022-09-16T13:44:46;3.47;;;2.77;;
6280;SDS011;3173;48.204;11.612;2022-09-16T13:49:40;7.50;;;2.70;;
6280;SDS011;3173;48.204;11.612;2022-09-16T13:52:08;4.10;;;2.43;;
6280;SDS011;3173;48.204;11.612;2022-09-16T13:55:24;4.30;;;2.67;;
6280;SDS011;3173;48.204;11.612;2022-09-16T14:10:17;11.17;;;3.50;;
6280;SDS011;3173;48.204;11.612;2022-09-16T14:15:16;5.93;;;3.00;;
6280;SDS011;3173;48.204;11.612;2022-09-16T14:17:45;5.60;;;3.40;;
6280;SDS011;3173;48.204;11.612;2022-09-16T14:20:13;3.57;;;2.80;;
6280;SDS011;3173;48.204;11.612;2022-09-16T14:22:42;5.77;;;3.17;;
6280;SDS011;3173;48.204;11.612;2022-09-16T14:28:20;7.20;;;2.93;;
6280;SDS011;3173;48.204;11.612;2022-09-16T14:30:48;4.43;;;3.40;;
6280;SDS011;3173;48.204;11.612;2022-09-16T14:33:15;7.40;;;3.73;;
6280;SDS011;3173;48.204;11.612;2022-09-16T14:35:43;5.23;;;3.50;;
6280;SDS011;3173;48.204;11.612;2022-09-16T14:38:11;4.20;;;3.73;;
6280;SDS011;3173;48.204;11.612;2022-09-16T14:40:38;4.50;;;3.50;;
6280;SDS011;3173;48.204;11.612;2022-09-16T14:43:05;5.50;;;4.10;;
6280;SDS011;3173;48.204;11.612;2022-09-16T14:45:52;10.30;;;4.90;;
6280;SDS011;3173;48.204;11.612;2022-09-16T14:48:21;9.23;;;4.13;;
6280;SDS011;3173;48.204;11.612;2022-09-16T14:50:49;10.60;;;5.03;;
6280;SDS011;3173;48.204;11.612;2022-09-16T14:53:26;7.13;;;4.97;;
6280;SDS011;3173;48.204;11.612;2022-09-16T14:55:52;11.80;;;4.83;;
6280;SDS011;3173;48.204;11.612;2022-09-16T14:58:18;4.90;;;3.43;;
6280;SDS011;3173;48.204;11.612;2022-09-16T15:00:46;5.60;;;4.00;;
6280;SDS011;3173;48.204;11.612;2022-09-16T15:03:15;7.93;;;4.33;;
6280;SDS011;3173;48.204;11.612;2022-09-16T15:05:43;6.57;;;4.37;;
6280;SDS011;3173;48.204;11.612;2022-09-16T15:08:24;6.43;;;3.97;;
6280;SDS011;3173;48.204;11.612;2022-09-16T15:10:52;7.20;;;3.80;;
6280;SDS011;3173;48.204;11.612;2022-09-16T15:13:19;7.03;;;3.50;;
6280;SDS011;3173;48.204;11.612;2022-09-16T15:15:53;6.13;;;4.00;;
6280;SDS011;3173;48.204;11.612;2022-09-16T15:18:21;5.77;;;4.10;;
6280;SDS011;3173;48.204;11.612;2022-09-16T15:20:50;6.63;;;4.60;;
6280;SDS011;3173;48.204;11.612;2022-09-16T15:23:21;6.73;;;4.63;;
6280;SDS011;3173;48.204;11.612;2022-09-16T15:25:52;7.97;;;5.07;;
6280;SDS011;3173;48.204;11.612;2022-09-16T15:28:19;7.03;;;4.37;;
6280;SDS011;3173;48.204;11.612;2022-09-16T15:30:46;8.57;;;4.37;;
6280;SDS011;3173;48.204;11.612;2022-09-16T15:33:22;5.90;;;4.20;;
6280;SDS011;3173;48.204;11.612;2022-09-16T15:35:50;6.30;;;4.90;;
6280;SDS011;3173;48.204;11.612;2022-09-16T15:38:19;6.23;;;4.13;;
6280;SDS011;3173;48.204;11.612;2022-09-16T15:40:45;6.83;;;4.57;;
6280;SDS011;3173;48.204;11.612;2022-09-16T15:43:16;8.50;;;4.70;;
6280;SDS011;3173;48.204;11.612;2022-09-16T15:45:44;7.57;;;4.67;;
6280;SDS011;3173;48.204;11.612;2022-09-16T15:48:12;6.40;;;4.50;;
6280;SDS011;3173;48.204;11.612;2022-09-16T15:50:59;10.43;;;4.23;;
6280;SDS011;3173;48.204;11.612;2022-09-16T16:01:02;6.10;;;4.10;;
6280;SDS011;3173;48.204;11.612;2022-09-16T16:03:30;9.10;;;3.97;;
6280;SDS011;3173;48.204;11.612;2022-09-16T16:05:57;7.83;;;5.07;;
6280;SDS011;3173;48.204;11.612;2022-09-16T16:08:39;5.13;;;4.07;;
6280;SDS011;3173;48.204;11.612;2022-09-16T16:11:07;7.47;;;4.37;;
6280;SDS011;3173;48.204;11.612;2022-09-16T16:13:34;6.13;;;4.37;;
6280;SDS011;3173;48.204;11.612;2022-09-16T16:16:00;6.47;;;3.87;;
6280;SDS011;3173;48.204;11.612;2022-09-16T16:18:28;8.37;;;3.90;;
6280;SDS011;3173;48.204;11.612;2022-09-16T16:20:56;6.70;;;4.37;;
6280;SDS011;3173;48.204;11.612;2022-09-16T16:23:22;8.40;;;4.37;;
6280;SDS011;3173;48.204;11.612;2022-09-16T16:25:48;8.60;;;4.17;;
6280;SDS011;3173;48.204;11.612;2022-09-16T16:28:14;6.70;;;4.33;;
6280;SDS011;3173;48.204;11.612;2022-09-16T16:30:40;5.97;;;4.67;;
6280;SDS011;3173;48.204;11.612;2022-09-16T16:33:07;8.17;;;4.20;;
6280;SDS011;3173;48.204;11.612;2022-09-16T16:35:33;7.30;;;4.67;;
6280;SDS011;3173;48.204;11.612;2022-09-16T16:37:59;6.20;;;4.60;;
6280;SDS011;3173;48.204;11.612;2022-09-16T16:40:25;10.93;;;5.03;;
6280;SDS011;3173;48.204;11.612;2022-09-16T16:42:51;8.13;;;4.60;;
6280;SDS011;3173;48.204;11.612;2022-09-16T16:45:16;6.27;;;3.93;;
6280;SDS011;3173;48.204;11.612;2022-09-16T16:47:42;7.20;;;4.37;;
6280;SDS011;3173;48.204;11.612;2022-09-16T16:50:10;6.23;;;4.50;;
6280;SDS011;3173;48.204;11.612;2022-09-16T16:52:36;6.80;;;4.50;;
6280;SDS011;3173;48.204;11.612;2022-09-16T16:55:02;6.73;;;3.73;;
6280;SDS011;3173;48.204;11.612;2022-09-16T16:57:30;8.33;;;4.47;;
6280;SDS011;3173;48.204;11.612;2022-09-16T16:59:56;8.00;;;4.50;;
6280;SDS011;3173;48.204;11.612;2022-09-16T17:02:35;7.40;;;4.57;;
6280;SDS011;3173;48.204;11.612;2022-09-16T17:05:01;6.30;;;4.20;;
6280;SDS011;3173;48.204;11.612;2022-09-16T17:07:36;8.00;;;4.70;;
6280;SDS011;3173;48.204;11.612;2022-09-16T17:10:02;10.10;;;4.20;;
6280;SDS011;3173;48.204;11.612;2022-09-16T17:12:44;6.07;;;4.50;;
6280;SDS011;3173;48.204;11.612;2022-09-16T17:15:10;7.20;;;4.40;;
6280;SDS011;3173;48.204;11.612;2022-09-16T17:17:36;8.40;;;4.97;;
6280;SDS011;3173;48.204;11.612;2022-09-16T17:20:04;8.37;;;4.70;;
6280;SDS011;3173;48.204;11.612;2022-09-16T17:22:30;6.87;;;4.73;;
6280;SDS011;3173;48.204;11.612;2022-09-16T17:24:56;5.10;;;4.30;;
6280;SDS011;3173;48.204;11.612;2022-09-16T17:27:22;10.07;;;5.13;;
6280;SDS011;3173;48.204;11.612;2022-09-16T17:29:50;8.17;;;4.50;;
6280;SDS011;3173;48.204;11.612;2022-09-16T17:32:16;9.30;;;5.20;;
6280;SDS011;3173;48.204;11.612;2022-09-16T17:34:43;7.70;;;5.27;;
6280;SDS011;3173;48.204;11.612;2022-09-16T17:37:09;8.03;;;4.50;;
6280;SDS011;3173;48.204;11.612;2022-09-16T17:39:35;7.63;;;4.50;;
6280;SDS011;3173;48.204;11.612;2022-09-16T17:42:01;8.80;;;4.80;;
6280;SDS011;3173;48.204;11.612;2022-09-16T17:44:27;7.90;;;4.57;;
6280;SDS011;3173;48.204;11.612;2022-09-16T17:46:53;6.33;;;4.00;;
6280;SDS011;3173;48.204;11.612;2022-09-16T17:49:20;7.63;;;4.90;;
6280;SDS011;3173;48.204;11.612;2022-09-16T17:51:46;6.90;;;4.87;;
6280;SDS011;3173;48.204;11.612;2022-09-16T17:54:12;10.70;;;5.40;;
6280;SDS011;3173;48.204;11.612;2022-09-16T17:56:38;6.97;;;5.13;;
6280;SDS011;3173;48.204;11.612;2022-09-16T17:59:06;11.90;;;5.60;;
6280;SDS011;3173;48.204;11.612;2022-09-16T18:01:32;8.00;;;5.00;;
6280;SDS011;3173;48.204;11.612;2022-09-16T18:03:59;10.00;;;5.20;;
6280;SDS011;3173;48.204;11.612;2022-09-16T18:06:27;7.87;;;5.03;;
6280;SDS011;3173;48.204;11.612;2022-09-16T18:08:54;6.00;;;5.10;;
6280;SDS011;3173;48.204;11.612;2022-09-16T18:11:20;5.30;;;4.50;;
6280;SDS011;3173;48.204;11.612;2022-09-16T18:13:47;6.70;;;5.23;;
6280;SDS011;3173;48.204;11.612;2022-09-16T18:16:15;6.80;;;4.67;;